createdAt,value
2023-05-01T01:43:54.310Z,4.57
2023-05-01T02:24:57.621Z,6.00
2023-05-01T02:31:04.440Z,8.52
2023-05-01T03:03:13.710Z,9.25
2023-05-01T03:55:45.413Z,8.57
2023-05-01T04:11:49.628Z,7.28
2023-05-01T05:05:56.869Z,7.57
2023-05-01T05:12:18.838Z,8.82
2023-05-01T05:14:45.860Z,10.23
2023-05-01T05:20:58.501Z,5.90
2023-05-01T05:23:47.690Z,7.13
2023-05-01T05:26:20.740Z,8.95
2023-05-01T05:49:16.785Z,6.72
2023-05-01T06:26:07.316Z,7.05
2023-05-01T06:38:09.716Z,6.35
2023-05-01T06:44:14.012Z,6.45
2023-05-01T06:46:41.212Z,4.75
2023-05-01T06:49:24.196Z,5.40
2023-05-01T06:52:09.933Z,5.68
2023-05-01T06:57:24.411Z,4.93
2023-05-01T07:13:12.296Z,7.57
2023-05-01T07:15:40.907Z,8.63
2023-05-01T07:18:18.787Z,5.55
2023-05-01T07:31:12.857Z,5.72
2023-05-01T07:37:18.762Z,4.60
2023-05-01T07:45:43.783Z,6.43
2023-05-01T07:48:16.592Z,4.53
2023-05-01T08:09:47.551Z,5.47
2023-05-01T08:40:32.847Z,4.82
2023-05-01T08:47:20.927Z,4.82
2023-05-01T08:49:58.933Z,5.38
2023-05-01T08:52:31.941Z,7.90
2023-05-01T08:58:06.864Z,9.68
2023-05-01T09:00:45.862Z,6.63
2023-05-01T09:03:19.008Z,6.03
2023-05-01T09:08:56.348Z,4.47
2023-05-01T09:11:37.938Z,3.40
2023-05-01T09:20:18.959Z,5.65
2023-05-01T09:25:52.042Z,5.07
2023-05-01T09:28:18.990Z,4.18
2023-05-01T09:30:52.966Z,5.13
2023-05-01T09:33:19.891Z,5.15
2023-05-01T09:35:57.060Z,4.75
2023-05-01T09:38:32.908Z,5.35
2023-05-01T09:41:11.879Z,6.28
2023-05-01T09:43:45.839Z,4.38
2023-05-01T09:46:13.371Z,5.40
2023-05-01T09:48:46.810Z,5.72
2023-05-01T09:51:24.957Z,4.90
2023-05-01T09:53:58.916Z,4.40
2023-05-01T09:56:31.948Z,5.07
2023-05-01T09:59:21.934Z,5.40
2023-05-01T10:01:50.871Z,4.00
2023-05-01T10:04:24.928Z,4.03
2023-05-01T10:06:51.962Z,4.07
2023-05-01T10:09:35.006Z,4.22
2023-05-01T10:12:08.327Z,5.38
2023-05-01T10:14:55.837Z,4.43
2023-05-01T10:17:23.139Z,4.32
2023-05-01T10:19:58.197Z,4.97
2023-05-01T10:22:26.665Z,5.40
2023-05-01T10:25:02.172Z,5.95
2023-05-01T10:27:29.129Z,5.05
2023-05-01T10:30:11.667Z,4.68
2023-05-01T10:35:28.836Z,5.35
2023-05-01T10:41:17.925Z,6.47
2023-05-01T10:47:39.479Z,8.05
2023-05-01T10:50:07.369Z,7.43
2023-05-01T10:53:22.834Z,6.85
2023-05-01T10:55:49.947Z,7.25
2023-05-01T10:58:44.883Z,5.03
2023-05-01T11:01:43.824Z,5.43
2023-05-01T11:04:25.960Z,6.45
2023-05-01T11:07:08.982Z,5.78
2023-05-01T11:09:47.908Z,6.45
2023-05-01T11:12:22.987Z,5.90
2023-05-01T11:15:10.006Z,7.05
2023-05-01T11:17:48.941Z,6.60
2023-05-01T11:20:31.897Z,5.65
2023-05-01T11:23:05.880Z,5.60
2023-05-01T11:25:33.372Z,5.10
2023-05-01T11:28:08.933Z,5.20
2023-05-01T11:30:42.438Z,8.25
2023-05-01T11:33:15.974Z,6.38
2023-05-01T11:35:49.911Z,3.45
2023-05-01T11:38:25.913Z,3.45
2023-05-01T11:40:56.306Z,5.65
2023-05-01T11:43:29.938Z,3.40
2023-05-01T11:46:02.750Z,4.50
2023-05-01T11:48:43.918Z,3.90
2023-05-01T11:51:20.965Z,3.42
2023-05-01T11:54:05.509Z,4.80
2023-05-01T11:56:47.923Z,3.90
2023-05-01T11:59:25.893Z,4.47
2023-05-01T12:01:53.778Z,4.53
2023-05-01T12:04:35.133Z,3.42
2023-05-01T12:07:08.898Z,2.88
2023-05-01T12:09:36.034Z,3.97
2023-05-01T12:12:15.895Z,3.58
2023-05-01T12:14:49.150Z,4.22
2023-05-01T12:17:23.070Z,3.67
2023-05-01T12:19:50.132Z,5.70
2023-05-01T12:22:23.905Z,4.68
2023-05-01T12:24:59.240Z,5.57
2023-05-01T12:27:26.264Z,5.25
2023-05-01T12:29:59.939Z,6.50
2023-05-01T12:32:37.972Z,4.20
2023-05-01T12:35:17.455Z,3.65
2023-05-01T12:37:50.938Z,5.90
2023-05-01T12:40:17.796Z,5.05
2023-05-01T12:42:51.920Z,5.55
2023-05-01T12:45:24.920Z,5.07
2023-05-01T12:47:59.096Z,7.47
2023-05-01T12:50:26.094Z,7.20
2023-05-01T12:52:59.993Z,7.65
2023-05-01T12:55:27.091Z,7.82
2023-05-01T12:58:01.007Z,6.93
2023-05-01T13:00:27.860Z,6.82
2023-05-01T13:03:01.009Z,6.35
2023-05-01T13:05:33.982Z,6.88
2023-05-01T13:08:06.970Z,5.72
2023-05-01T13:10:33.850Z,4.57
2023-05-01T13:13:13.972Z,5.65
2023-05-01T13:15:40.850Z,6.25
2023-05-01T13:18:15.014Z,7.03
2023-05-01T13:20:42.744Z,6.07
2023-05-01T13:23:22.105Z,6.22
2023-05-01T13:26:03.965Z,5.40
2023-05-01T13:28:32.474Z,5.90
2023-05-01T13:31:06.099Z,5.28
2023-05-01T13:33:33.081Z,4.90
2023-05-01T13:36:21.666Z,4.65
2023-05-01T13:38:56.487Z,4.70
2023-05-01T13:41:32.043Z,4.10
2023-05-01T13:43:59.076Z,4.82
2023-05-01T13:46:36.288Z,6.75
2023-05-01T13:49:08.335Z,4.43
2023-05-01T13:51:49.550Z,6.32
2023-05-01T13:54:17.263Z,5.10
2023-05-01T13:56:51.007Z,4.85
2023-05-01T13:59:17.798Z,7.78
2023-05-01T14:01:52.989Z,4.97
2023-05-01T14:04:21.468Z,6.50
2023-05-01T14:06:55.202Z,5.22
2023-05-01T14:09:23.548Z,4.72
2023-05-01T14:11:58.010Z,5.60
2023-05-01T14:14:37.947Z,4.97
2023-05-01T14:17:11.079Z,4.95
2023-05-01T14:19:40.039Z,5.20
2023-05-01T14:22:10.978Z,4.15
2023-05-01T14:24:48.105Z,4.05
2023-05-01T14:27:15.825Z,5.45
2023-05-01T14:29:53.017Z,4.13
2023-05-01T14:32:19.833Z,4.05
2023-05-01T14:34:53.045Z,3.42
2023-05-01T14:37:20.098Z,4.22
2023-05-01T14:39:53.094Z,3.10
2023-05-01T14:42:19.979Z,2.58
2023-05-01T14:44:53.030Z,5.38
2023-05-01T14:47:22.110Z,3.08
2023-05-01T14:50:01.069Z,2.10
2023-05-01T14:52:28.099Z,2.20
2023-05-01T14:55:01.175Z,1.90
2023-05-01T14:57:29.272Z,3.40
2023-05-01T15:00:03.034Z,1.90
2023-05-01T15:02:30.485Z,3.28
2023-05-01T15:05:04.123Z,2.00
2023-05-01T15:07:37.004Z,2.83
2023-05-01T15:10:05.119Z,3.47
2023-05-01T15:12:38.090Z,2.40
2023-05-01T15:15:05.721Z,2.65
2023-05-01T15:17:39.107Z,3.13
2023-05-01T15:20:06.882Z,3.03
2023-05-01T15:22:41.029Z,4.55
2023-05-01T15:25:10.903Z,2.75
2023-05-01T15:27:46.025Z,3.03
2023-05-01T15:30:15.263Z,3.00
2023-05-01T15:32:42.379Z,3.88
2023-05-01T15:35:16.122Z,3.83
2023-05-01T15:37:42.982Z,3.88
2023-05-01T15:40:17.203Z,4.57
2023-05-01T15:42:45.889Z,3.83
2023-05-01T15:45:19.219Z,4.13
2023-05-01T15:47:46.480Z,4.80
2023-05-01T15:50:20.960Z,5.20
2023-05-01T15:52:48.746Z,3.65
2023-05-01T15:55:22.139Z,3.92
2023-05-01T15:57:49.045Z,5.82
2023-05-01T16:00:24.102Z,3.55
2023-05-01T16:02:57.236Z,5.05
2023-05-01T16:05:26.892Z,5.45
2023-05-01T16:08:07.141Z,3.22
2023-05-01T16:10:40.828Z,3.35
2023-05-01T16:13:21.137Z,4.80
2023-05-01T16:15:54.575Z,5.78
2023-05-01T16:18:31.152Z,4.93
2023-05-01T16:21:05.129Z,4.13
2023-05-01T16:23:39.119Z,4.30
2023-05-01T16:26:06.892Z,3.58
2023-05-01T16:28:43.119Z,5.95
2023-05-01T16:31:23.430Z,7.10
2023-05-01T16:34:01.118Z,4.13
2023-05-01T16:36:28.163Z,4.22
2023-05-01T16:39:01.153Z,6.00
2023-05-01T16:41:28.015Z,3.67
2023-05-01T16:44:05.117Z,6.32
2023-05-01T16:49:28.260Z,5.32
2023-05-01T16:51:57.406Z,5.38
2023-05-01T16:54:39.302Z,5.65
2023-05-01T16:57:06.319Z,5.93
2023-05-01T17:02:20.686Z,6.65
2023-05-01T17:04:54.224Z,4.95
2023-05-01T17:17:47.908Z,5.75
2023-05-01T17:20:14.840Z,4.97
2023-05-01T17:22:52.098Z,6.80
2023-05-01T17:25:19.117Z,5.35
2023-05-01T17:27:52.145Z,5.68
2023-05-01T17:30:19.140Z,8.75
2023-05-01T17:32:53.395Z,8.18
2023-05-01T17:35:20.673Z,5.75
2023-05-01T17:40:45.031Z,7.35
2023-05-01T17:43:24.993Z,7.32
2023-05-01T17:45:51.838Z,8.45
2023-05-01T17:48:27.244Z,9.82
2023-05-01T17:50:56.009Z,8.85
2023-05-01T17:53:48.129Z,7.57
2023-05-01T17:56:15.149Z,8.52
2023-05-01T17:58:51.164Z,9.65
2023-05-01T18:01:18.213Z,7.35
2023-05-01T18:03:52.299Z,9.75
2023-05-01T18:06:38.317Z,11.20
2023-05-01T18:09:05.341Z,6.78
2023-05-01T18:11:47.163Z,6.55
2023-05-01T18:14:20.316Z,7.07
2023-05-01T18:16:54.363Z,6.43
2023-05-01T18:19:23.762Z,5.95
2023-05-01T18:22:04.249Z,6.07
2023-05-01T18:24:33.711Z,5.85
2023-05-01T18:27:07.234Z,6.38
2023-05-01T18:29:34.242Z,5.75
2023-05-01T18:34:51.724Z,5.75
2023-05-01T18:37:33.278Z,5.72
2023-05-01T18:40:03.318Z,6.63
2023-05-01T18:42:38.270Z,8.27
2023-05-01T18:45:21.355Z,8.65
2023-05-01T18:47:56.806Z,8.90
2023-05-01T18:50:24.495Z,7.55
2023-05-01T18:52:54.539Z,11.10
2023-05-01T18:55:32.527Z,10.13
2023-05-01T18:58:10.103Z,9.75
2023-05-01T19:03:26.277Z,9.38
2023-05-01T19:06:01.249Z,12.35
2023-05-01T19:08:31.887Z,11.95
2023-05-01T19:11:05.275Z,11.30
2023-05-01T19:13:52.353Z,12.02
2023-05-01T19:16:29.111Z,12.30
2023-05-01T19:18:59.200Z,12.32
2023-05-01T19:24:17.948Z,11.38
2023-05-01T19:27:13.258Z,13.20
2023-05-01T19:29:43.877Z,12.82
2023-05-01T19:32:22.369Z,12.73
2023-05-01T19:34:56.548Z,11.85
2023-05-01T19:37:34.461Z,13.40
2023-05-01T19:40:04.003Z,13.15
2023-05-01T19:42:38.251Z,13.75
2023-05-01T19:45:07.221Z,13.13
2023-05-01T19:47:43.956Z,11.80
2023-05-01T19:50:13.844Z,14.23
2023-05-01T19:52:55.202Z,13.65
2023-05-01T19:55:29.425Z,13.38
2023-05-01T20:00:53.277Z,13.82
2023-05-01T20:03:20.864Z,13.60
2023-05-01T20:05:54.501Z,14.07
2023-05-01T20:08:22.843Z,14.43
2023-05-01T20:10:56.267Z,14.68
2023-05-01T20:13:32.296Z,15.00
2023-05-01T20:16:14.670Z,14.90
2023-05-01T20:18:53.356Z,15.02
2023-05-01T20:21:27.183Z,14.80
2023-05-01T20:23:56.465Z,14.15
2023-05-01T20:29:11.017Z,15.10
2023-05-01T20:31:47.252Z,15.43
2023-05-01T20:34:16.657Z,16.98
2023-05-01T20:36:48.850Z,15.55
2023-05-01T20:45:33.929Z,17.08
2023-05-01T20:48:02.045Z,17.35
2023-05-01T20:50:42.372Z,17.80
2023-05-01T20:53:17.317Z,19.23
2023-05-01T20:55:48.072Z,20.27
2023-05-01T20:58:31.255Z,23.67
2023-05-01T21:00:59.456Z,25.35
2023-05-01T21:03:32.417Z,24.05
2023-05-01T21:06:09.361Z,24.10
2023-05-01T21:08:45.809Z,24.42
2023-05-01T21:11:19.363Z,25.80
2023-05-01T21:14:04.358Z,24.70
2023-05-01T21:16:43.699Z,25.63
2023-05-01T21:22:51.416Z,28.27
2023-05-01T21:31:26.174Z,29.42
2023-05-01T21:33:53.935Z,28.80
2023-05-01T21:36:30.876Z,28.35
2023-05-01T21:39:08.096Z,29.55
2023-05-01T21:44:24.430Z,27.77
2023-05-01T21:47:37.615Z,30.55
2023-05-01T21:50:08.124Z,29.08
2023-05-01T21:52:46.489Z,30.95
2023-05-01T21:58:40.883Z,28.92
2023-05-01T22:01:13.851Z,31.00
2023-05-01T22:03:54.318Z,32.22
2023-05-01T22:06:28.413Z,34.50
2023-05-01T22:09:03.802Z,32.97
2023-05-01T22:11:33.860Z,33.90
2023-05-01T22:14:13.326Z,32.60
2023-05-01T22:16:47.579Z,31.45
2023-05-01T22:19:22.417Z,32.17
2023-05-01T22:21:52.760Z,29.13
2023-05-01T22:24:30.348Z,27.85
2023-05-01T22:36:22.783Z,29.20
2023-05-01T22:38:54.568Z,26.92
2023-05-01T22:47:54.432Z,26.15
2023-05-01T22:58:46.640Z,29.98
2023-05-01T23:01:19.313Z,34.38
2023-05-01T23:08:10.645Z,28.98
2023-05-01T23:10:53.504Z,29.00
2023-05-01T23:32:01.466Z,33.63
2023-05-01T23:37:22.276Z,33.22
2023-05-01T23:39:56.389Z,34.15
2023-05-01T23:42:28.570Z,33.30
2023-05-01T23:45:02.447Z,34.50
2023-05-01T23:56:40.502Z,36.03
2023-05-01T23:59:08.428Z,35.38
